National Weather Service Raw Text Product

Displaying AFOS PIL: TAFMCW Received: 2018-01-12 09:53 UTC


404 
FTUS43 KDMX 120953 AAB
TAFMCW
TAF AMD
KMCW 120953Z 1210/1306 33017G26KT P6SM SCT010
     FM121100 34015KT P6SM SKC
     FM122300 34009KT P6SM BKN100=